Time;durP1;ratioP1;P1;durP2;ratioP2;P2;SDS_P1;SDS_P2;PMS_P1;PMS_P2;Temp;Humidity;BMP_temperature;BMP_pressure;BME280_temperature;BME280_humidity;BME280_pressure;Samples;Min_cycle;Max_cycle;Signal;HPM_P1;HPM_P2
2021/06/23 00:00:27;;;;;;;29.07;15.15;;;;;;;21.59;74.85;98096.70;1675505;84;28040;-90
2021/06/23 00:02:56;;;;;;;29.90;15.75;;;;;;;21.61;74.88;98094.16;1683490;84;28050;-89
2021/06/23 00:05:24;;;;;;;28.77;15.90;;;;;;;21.66;74.91;98094.94;1680717;84;28084;-89
2021/06/23 00:07:51;;;;;;;27.52;16.40;;;;;;;21.67;74.92;98093.42;1688665;84;28058;-89
2021/06/23 00:10:18;;;;;;;26.25;15.98;;;;;;;21.68;74.93;98098.25;1680743;84;28004;-89
2021/06/23 00:12:47;;;;;;;28.38;15.75;;;;;;;21.64;74.95;98097.80;1687027;84;28106;-90
2021/06/23 00:15:15;;;;;;;25.85;15.93;;;;;;;21.63;74.95;98103.31;1674597;84;28111;-90
2021/06/23 00:17:43;;;;;;;30.27;16.80;;;;;;;21.63;74.98;98101.98;1690773;83;28163;-90
2021/06/23 00:20:11;;;;;;;26.23;15.32;;;;;;;21.60;74.98;98098.37;1685114;84;28079;-89
2021/06/23 00:22:40;;;;;;;27.20;15.60;;;;;;;21.58;75.02;98103.04;1653157;84;28094;-89
2021/06/23 00:25:08;;;;;;;31.35;15.83;;;;;;;21.58;75.05;98099.05;1685492;83;28107;-89
2021/06/23 00:27:34;;;;;;;30.68;15.40;;;;;;;21.56;75.09;98096.55;1687755;84;28069;-89
2021/06/23 00:30:01;;;;;;;24.92;14.20;;;;;;;21.55;75.14;98095.41;1676981;84;28015;-89
2021/06/23 00:32:29;;;;;;;25.70;13.62;;;;;;;21.55;75.18;98092.23;1688989;84;28034;-89
2021/06/23 00:34:55;;;;;;;22.65;13.75;;;;;;;21.49;75.21;98092.97;1672367;84;28086;-89
2021/06/23 00:37:22;;;;;;;23.90;12.85;;;;;;;21.49;75.25;98089.51;1686546;84;28171;-90
2021/06/23 00:39:51;;;;;;;25.90;14.35;;;;;;;21.54;75.29;98091.11;1676788;84;28075;-90
2021/06/23 00:42:19;;;;;;;25.10;13.53;;;;;;;21.53;75.29;98091.61;1683473;84;28042;-89
2021/06/23 00:44:48;;;;;;;24.80;12.98;;;;;;;21.58;75.33;98093.72;1677899;83;28064;-90
2021/06/23 00:47:18;;;;;;;26.05;14.70;;;;;;;21.54;75.35;98096.44;1678807;83;28072;-90
2021/06/23 00:49:45;;;;;;;26.40;13.68;;;;;;;21.55;75.36;98094.90;1670994;85;28067;-90
2021/06/23 00:52:11;;;;;;;17.57;11.80;;;;;;;21.50;75.36;98088.47;1658205;84;28222;-89
2021/06/23 00:54:42;;;;;;;15.43;10.85;;;;;;;21.48;75.37;98089.19;1653294;84;28125;-90
2021/06/23 00:57:09;;;;;;;12.65;7.85;;;;;;;21.46;75.39;98094.69;1647604;85;28089;-90
2021/06/23 00:59:35;;;;;;;18.42;11.60;;;;;;;21.42;75.38;98090.74;1658619;84;28107;-90
2021/06/23 01:02:03;;;;;;;34.08;14.85;;;;;;;21.43;75.38;98096.90;1655767;85;28097;-90
2021/06/23 01:04:32;;;;;;;29.05;13.83;;;;;;;21.40;75.40;98099.91;1654206;84;28073;-89
2021/06/23 01:06:59;;;;;;;23.55;12.78;;;;;;;21.35;75.41;98096.97;1653814;85;28174;-90
2021/06/23 01:09:25;;;;;;;26.80;13.10;;;;;;;21.32;75.42;98101.34;1647855;85;28076;-90
2021/06/23 01:12:30;;;;;;;29.45;15.48;;;;;;;21.26;75.45;98105.06;1656424;85;28099;-90
2021/06/23 01:15:00;;;;;;;27.22;13.95;;;;;;;21.20;75.48;98105.79;1649758;84;28084;-90
2021/06/23 01:17:29;;;;;;;27.93;14.23;;;;;;;21.20;75.50;98109.78;1647877;85;28015;-90
2021/06/23 01:20:10;;;;;;;26.73;13.38;;;;;;;21.20;75.55;98115.11;1651899;85;28115;-90
2021/06/23 01:22:42;;;;;;;29.02;15.70;;;;;;;21.16;75.57;98112.99;1654047;85;28085;-89
2021/06/23 01:25:12;;;;;;;32.78;15.90;;;;;;;21.12;75.63;98120.46;1651293;84;28137;-89
2021/06/23 01:27:41;;;;;;;29.42;15.35;;;;;;;21.05;75.70;98122.71;1624934;85;28107;-89
2021/06/23 01:30:10;;;;;;;30.00;14.93;;;;;;;21.03;75.75;98124.72;1649727;85;28038;-89
2021/06/23 01:32:46;;;;;;;29.75;14.90;;;;;;;21.00;75.82;98120.56;1649842;85;28202;-89
2021/06/23 01:35:13;;;;;;;30.72;15.18;;;;;;;20.97;75.90;98121.44;1644034;85;28130;-89
2021/06/23 01:37:40;;;;;;;28.90;14.93;;;;;;;20.97;75.94;98121.44;1653678;85;28178;-89
2021/06/23 01:40:13;;;;;;;30.37;13.30;;;;;;;21.01;76.05;98129.38;1648000;84;28173;-89
2021/06/23 01:42:41;;;;;;;25.12;14.40;;;;;;;20.96;76.10;98127.27;1644644;84;28043;-89
2021/06/23 01:45:08;;;;;;;27.82;15.35;;;;;;;20.92;76.17;98127.31;1649875;85;28075;-89
2021/06/23 01:47:35;;;;;;;25.30;13.83;;;;;;;20.92;76.26;98123.81;1647746;84;28281;-89
2021/06/23 01:50:03;;;;;;;26.15;14.75;;;;;;;20.93;76.35;98124.98;1655370;85;28118;-89
2021/06/23 01:52:34;;;;;;;24.12;12.85;;;;;;;20.88;76.43;98120.70;1660160;84;27991;-89
2021/06/23 01:54:59;;;;;;;27.32;14.25;;;;;;;20.83;76.49;98115.92;1658261;85;28176;-89
2021/06/23 01:57:28;;;;;;;20.30;13.65;;;;;;;20.81;76.59;98127.73;1651418;84;28103;-89
2021/06/23 01:59:54;;;;;;;23.62;13.15;;;;;;;20.86;76.69;98126.19;1652149;85;28113;-89
2021/06/23 02:02:34;;;;;;;27.10;14.47;;;;;;;20.93;76.79;98128.97;1657067;85;28019;-89
2021/06/23 02:05:04;;;;;;;22.15;13.10;;;;;;;21.00;76.87;98126.42;1656633;85;28024;-88
2021/06/23 02:08:11;;;;;;;24.45;14.07;;;;;;;21.05;76.93;98138.68;1656505;85;28018;-89
2021/06/23 02:10:41;;;;;;;20.82;12.93;;;;;;;21.04;77.00;98137.85;1656762;85;28185;-89
2021/06/23 02:13:31;;;;;;;21.90;12.73;;;;;;;21.07;77.06;98142.80;1653199;85;28153;-88
2021/06/23 02:16:00;;;;;;;20.45;12.55;;;;;;;21.13;77.14;98151.39;1657761;84;28043;-88
2021/06/23 02:18:27;;;;;;;22.45;12.70;;;;;;;21.14;77.17;98151.75;1651885;85;28115;-88
2021/06/23 02:20:57;;;;;;;20.02;13.28;;;;;;;21.09;77.19;98162.08;1649205;85;28150;-88
2021/06/23 02:23:30;;;;;;;24.80;14.35;;;;;;;21.07;77.22;98163.25;1652068;85;28087;-88
2021/06/23 02:25:57;;;;;;;25.68;14.15;;;;;;;21.05;77.26;98170.11;1656700;85;28082;-89
2021/06/23 02:28:24;;;;;;;24.60;13.75;;;;;;;21.02;77.28;98155.81;1654701;85;28094;-89
2021/06/23 02:30:51;;;;;;;26.00;14.47;;;;;;;20.97;77.31;98156.03;1654063;83;28166;-89
2021/06/23 02:33:19;;;;;;;25.72;14.83;;;;;;;20.95;77.36;98152.21;1648951;84;28110;-89
2021/06/23 02:35:48;;;;;;;24.27;15.03;;;;;;;20.87;77.40;98161.11;1658158;85;28087;-89
2021/06/23 02:38:24;;;;;;;24.65;15.13;;;;;;;20.83;77.46;98162.98;1653663;85;28184;-88
2021/06/23 02:40:50;;;;;;;29.30;15.90;;;;;;;20.85;77.55;98162.27;1652827;85;28135;-88
2021/06/23 02:43:18;;;;;;;25.88;15.13;;;;;;;20.85;77.62;98155.63;1651734;85;28075;-89
2021/06/23 02:45:45;;;;;;;29.75;17.20;;;;;;;20.81;77.68;98161.81;1651035;85;28152;-89
2021/06/23 02:48:12;;;;;;;29.20;16.25;;;;;;;20.76;77.73;98157.53;1631107;85;28133;-89
2021/06/23 02:51:06;;;;;;;32.20;16.60;;;;;;;20.72;77.78;98156.24;1646952;85;28030;-88
2021/06/23 02:53:33;;;;;;;26.48;16.23;;;;;;;20.73;77.87;98149.09;1607330;87;28177;-88
2021/06/23 02:56:00;;;;;;;28.85;17.17;;;;;;;20.78;77.95;98150.19;1653939;85;28084;-89
2021/06/23 02:58:28;;;;;;;29.30;18.25;;;;;;;20.85;78.06;98161.77;1652819;85;28061;-89
2021/06/23 03:00:55;;;;;;;26.42;17.12;;;;;;;20.85;78.11;98163.11;1650810;85;28158;-89
2021/06/23 03:03:24;;;;;;;28.38;17.23;;;;;;;20.83;78.17;98162.98;1677207;84;28078;-89
2021/06/23 03:05:51;;;;;;;28.87;16.65;;;;;;;20.83;78.22;98158.98;1686125;84;28168;-89
2021/06/23 03:08:22;;;;;;;31.45;19.50;;;;;;;20.90;78.28;98161.23;1684490;83;28115;-89
2021/06/23 03:10:45;;;;;;;29.80;18.00;;;;;;;21.00;78.33;98163.14;1675507;83;28703;-89
2021/06/23 03:13:12;;;;;;;32.42;19.20;;;;;;;21.05;78.36;98174.10;1683955;84;28143;-89
2021/06/23 03:15:38;;;;;;;32.13;18.70;;;;;;;21.05;78.40;98175.94;1691305;84;28029;-89
2021/06/23 03:18:05;;;;;;;29.82;17.95;;;;;;;21.08;78.43;98172.40;1687979;84;28216;-89
2021/06/23 03:20:35;;;;;;;33.78;19.10;;;;;;;21.06;78.43;98185.55;1689649;84;28088;-89
2021/06/23 03:23:02;;;;;;;33.42;20.80;;;;;;;20.97;78.42;98186.13;1679584;84;28159;-90
2021/06/23 03:25:29;;;;;;;36.28;19.55;;;;;;;20.99;78.49;98194.77;1683496;84;28038;-89
2021/06/23 03:27:58;;;;;;;31.52;18.02;;;;;;;21.00;78.51;98191.61;1688972;84;28126;-89
2021/06/23 03:30:26;;;;;;;29.15;18.17;;;;;;;20.97;78.54;98199.93;1647006;85;28089;-89
2021/06/23 03:32:59;;;;;;;33.65;20.77;;;;;;;20.98;78.58;98199.77;1688355;84;28154;-89
2021/06/23 03:35:25;;;;;;;36.28;19.75;;;;;;;20.95;78.64;98199.30;1682986;83;28140;-89
2021/06/23 03:38:00;;;;;;;34.65;20.70;;;;;;;20.95;78.68;98201.96;1686573;84;28154;-89
2021/06/23 03:40:27;;;;;;;36.25;20.70;;;;;;;20.85;78.69;98201.67;1680796;84;28107;-89
2021/06/23 03:42:53;;;;;;;32.63;19.25;;;;;;;20.83;78.73;98204.20;1695445;84;28084;-90
2021/06/23 03:45:20;;;;;;;33.13;20.55;;;;;;;20.79;78.78;98205.55;1686658;84;28071;-89
2021/06/23 03:47:47;;;;;;;31.33;19.37;;;;;;;20.87;78.85;98220.13;1689018;84;28386;-89
2021/06/23 03:50:15;;;;;;;34.03;19.70;;;;;;;20.89;78.92;98221.59;1691478;84;28183;-89
2021/06/23 03:52:49;;;;;;;31.10;19.55;;;;;;;20.87;78.98;98218.30;1680521;82;28162;-89
2021/06/23 03:55:25;;;;;;;30.77;19.80;;;;;;;20.89;79.03;98222.92;1686822;83;28087;-89
2021/06/23 03:57:52;;;;;;;33.58;18.52;;;;;;;20.87;79.06;98222.29;1685196;84;28090;-89
2021/06/23 04:00:21;;;;;;;35.48;20.17;;;;;;;20.91;79.15;98224.08;1686306;84;28143;-90
2021/06/23 04:02:48;;;;;;;33.30;19.87;;;;;;;20.91;79.19;98220.59;1677689;84;28132;-90
2021/06/23 04:05:17;;;;;;;32.90;19.92;;;;;;;20.86;79.24;98217.97;1682300;83;28083;-90
2021/06/23 04:07:44;;;;;;;35.78;19.80;;;;;;;20.85;79.27;98217.64;1683980;84;28159;-90
2021/06/23 04:10:14;;;;;;;30.10;19.87;;;;;;;20.84;79.32;98215.98;1681447;83;28106;-90
2021/06/23 04:12:40;;;;;;;29.00;19.02;;;;;;;20.83;79.39;98217.01;1691611;83;28106;-90
2021/06/23 04:15:09;;;;;;;32.17;19.60;;;;;;;20.85;79.46;98217.64;1682012;84;28053;-90
2021/06/23 04:17:35;;;;;;;;;;;;;;;20.86;79.53;98221.12;1686575;84;28065;-90
2021/06/23 04:20:02;;;;;;;;;;;;;;;20.85;79.57;98221.62;1690313;84;21982;-90
2021/06/23 04:22:28;;;;;;;;;;;;;;;20.86;79.63;98227.28;1660052;85;26057;-90
2021/06/23 04:24:56;;;;;;;;;;;;;;;20.83;79.70;98225.48;1662636;85;171446;-90
2021/06/23 04:27:22;;;;;;;;;;;;;;;20.80;79.72;98231.14;1685896;84;20713;-90
2021/06/23 04:29:49;;;;;;;;;;;;;;;20.79;79.76;98226.82;1685120;84;24801;-90
2021/06/23 04:32:15;;;;;;;;;;;;;;;20.78;79.79;98229.98;1677738;84;21957;-90
2021/06/23 04:34:42;;;;;;;;;;;;;;;20.81;79.87;98228.31;1677342;84;26707;-91
2021/06/23 04:37:08;;;;;;;;;;;;;;;20.82;79.89;98232.63;1685998;83;25302;-91
2021/06/23 04:39:38;;;;;;;;;;;;;;;20.81;79.93;98224.33;1681423;84;20219;-91
2021/06/23 04:42:05;;;;;;;;;;;;;;;20.84;79.99;98225.78;1681241;85;24776;-91
2021/06/23 04:44:35;;;;;;;;;;;;;;;20.96;80.04;98224.38;1679995;84;21576;-91
2021/06/23 04:46:59;;;;;;;;;;;;;;;20.95;80.05;98218.72;1682881;84;26139;-91
2021/06/23 04:49:25;;;;;;;;;;;;;;;20.93;80.07;98218.09;1686832;83;24473;-90
2021/06/23 04:51:51;;;;;;;;;;;;;;;20.91;80.10;98220.09;1683295;84;20651;-91
2021/06/23 04:54:23;;;;;;;;;;;;;;;20.89;80.11;98216.27;1686524;84;33347;-89
2021/06/23 04:56:50;;;;;;;30.88;19.40;;;;;;;20.90;80.13;98210.45;1685563;83;22844;-89
2021/06/23 04:59:16;;;;;;;29.12;18.05;;;;;;;20.93;80.16;98207.95;1687083;84;28079;-89
2021/06/23 05:01:42;;;;;;;;;;;;;;;20.95;80.19;98206.75;1692797;83;28138;-89
2021/06/23 05:04:08;;;;;;;;;;;;;;;20.92;80.17;98208.45;1686219;83;20235;-88
2021/06/23 05:06:40;;;;;;;;;;;;;;;20.94;80.20;98210.95;1672445;85;25467;-90
2021/06/23 05:09:06;;;;;;;;;;;;;;;20.92;80.22;98215.10;1668462;85;22064;-90
2021/06/23 05:11:33;;;;;;;;;;;;;;;20.88;80.25;98211.98;1670763;84;26060;-90
2021/06/23 05:14:09;;;;;;;;;;;;;;;20.90;80.27;98222.42;1674841;85;25164;-90
2021/06/23 05:16:37;;;;;;;;;;;;;;;20.89;80.28;98224.25;1669555;85;20210;-89
2021/06/23 05:19:03;;;;;;;;;;;;;;;20.89;80.32;98224.78;1682873;84;24806;-90
2021/06/23 05:21:31;;;;;;;;;;;;;;;20.93;80.37;98232.73;1668652;85;21980;-91
2021/06/23 05:23:57;;;;;;;;;;;;;;;20.91;80.38;98229.41;1691847;84;26052;-90
2021/06/23 05:26:23;;;;;;;;;;;;;;;20.93;80.40;98240.70;1670584;84;24555;-90
2021/06/23 05:28:50;;;;;;;;;;;;;;;20.91;80.42;98244.53;1689141;83;20220;-90
2021/06/23 05:31:16;;;;;;;;;;;;;;;20.93;80.45;98243.37;1665933;85;24745;-90
2021/06/23 05:33:42;;;;;;;;;;;;;;;20.93;80.47;98251.84;1665808;85;22084;-89
2021/06/23 05:36:08;;;;;;;;;;;;;;;20.99;80.52;98251.98;1670517;85;21034;-90
2021/06/23 05:38:37;;;;;;;;;;;;;;;21.01;80.55;98255.27;1669438;84;20618;-90
2021/06/23 05:41:04;;;;;;;;;;;;;;;21.07;80.57;98253.73;1672437;85;20263;-90
2021/06/23 05:43:30;;;;;;;;;;;;;;;21.05;80.59;98251.77;1691612;83;24809;-90
2021/06/23 05:45:56;;;;;;;;;;;;;;;20.98;80.56;98260.95;1689446;83;22030;-90
2021/06/23 05:48:22;;;;;;;;;;;;;;;20.93;80.57;98263.82;1658507;85;25409;-90
2021/06/23 05:50:48;;;;;;;;;;;;;;;20.92;80.58;98262.16;1673080;84;24626;-90
2021/06/23 05:53:15;;;;;;;;;;;;;;;20.91;80.60;98262.66;1671445;85;20214;-90
2021/06/23 05:55:41;;;;;;;38.45;22.82;;;;;;;20.89;80.64;98274.00;1676031;84;24776;-90
2021/06/23 05:58:11;;;;;;;41.20;22.98;;;;;;;20.85;80.67;98277.98;1649275;86;28016;-91
2021/06/23 06:00:43;;;;;;;39.75;23.38;;;;;;;20.84;80.69;98290.46;1647587;85;28011;-91
2021/06/23 06:03:10;;;;;;;37.75;22.48;;;;;;;20.88;80.73;98296.28;1641925;85;28000;-90
2021/06/23 06:05:37;;;;;;;29.55;18.65;;;;;;;20.82;80.76;98292.98;1662049;83;28072;-90
2021/06/23 06:08:05;;;;;;;31.55;18.15;;;;;;;20.74;80.77;98295.17;1653234;85;28094;-90
2021/06/23 06:10:34;;;;;;;27.10;16.50;;;;;;;20.61;80.79;98290.95;1659351;85;28071;-91
2021/06/23 06:13:10;;;;;;;28.73;18.10;;;;;;;20.55;80.80;98296.95;1677944;85;28077;-91
2021/06/23 06:15:36;;;;;;;20.37;12.63;;;;;;;20.50;80.86;98299.30;1677187;84;28051;-90
2021/06/23 06:18:04;;;;;;;25.45;15.30;;;;;;;20.48;80.95;98301.30;1677196;84;28166;-90
2021/06/23 06:20:31;;;;;;;23.62;16.07;;;;;;;20.37;81.02;98307.81;1677212;85;28077;-89
2021/06/23 06:22:59;;;;;;;24.75;15.83;;;;;;;20.29;81.10;98302.48;1677762;85;28255;-89
2021/06/23 06:25:27;;;;;;;26.70;15.98;;;;;;;20.29;81.19;98310.98;1677131;84;28020;-89
2021/06/23 06:27:54;;;;;;;26.25;15.98;;;;;;;20.24;81.30;98310.14;1678939;85;28192;-89
2021/06/23 06:30:22;;;;;;;27.17;16.57;;;;;;;20.20;81.41;98314.65;1679432;84;28024;-90
2021/06/23 06:32:50;;;;;;;31.48;17.20;;;;;;;20.20;81.49;98315.98;1677861;85;28223;-89
2021/06/23 06:35:17;;;;;;;24.37;15.55;;;;;;;20.18;81.58;98319.33;1676753;85;28107;-89
2021/06/23 06:37:46;;;;;;;28.80;17.30;;;;;;;20.14;81.69;98320.64;1677253;84;28077;-89
2021/06/23 06:40:13;;;;;;;26.90;16.60;;;;;;;20.06;81.79;98330.81;1679750;84;25070;-89
2021/06/23 06:42:42;;;;;;;23.27;15.93;;;;;;;20.08;81.85;98331.94;1674911;84;28061;-89
2021/06/23 06:45:09;;;;;;;25.75;17.25;;;;;;;20.08;81.93;98336.76;1677747;83;28118;-91
2021/06/23 06:47:36;;;;;;;28.85;17.75;;;;;;;20.03;82.04;98341.26;1678291;84;28071;-89
2021/06/23 06:50:03;;;;;;;30.77;18.25;;;;;;;20.07;82.09;98339.11;1674058;85;28083;-90
2021/06/23 06:52:31;;;;;;;28.83;17.73;;;;;;;20.10;82.20;98343.24;1676286;85;28010;-90
2021/06/23 06:54:58;;;;;;;24.82;17.00;;;;;;;20.13;82.29;98329.11;1659168;83;28086;-89
2021/06/23 06:57:34;;;;;;;30.12;17.82;;;;;;;20.16;82.37;98343.40;1639392;86;28153;-90
2021/06/23 07:00:00;;;;;;;29.15;19.40;;;;;;;20.13;82.47;98349.03;1639762;87;28152;-90
2021/06/23 07:02:28;;;;;;;29.48;18.48;;;;;;;20.14;82.51;98352.03;1639407;87;28015;-90
2021/06/23 07:04:54;;;;;;;29.87;18.85;;;;;;;20.24;82.62;98349.17;1639454;87;28169;-91
2021/06/23 07:07:20;;;;;;;29.18;17.92;;;;;;;20.26;82.68;98345.36;1639270;87;28173;-90
2021/06/23 07:09:50;;;;;;;29.70;18.00;;;;;;;20.27;82.73;98345.70;1641024;86;28075;-90
2021/06/23 07:12:16;;;;;;;24.27;15.85;;;;;;;20.28;82.78;98357.16;1639490;86;28099;-90
2021/06/23 07:14:42;;;;;;;26.48;17.80;;;;;;;20.24;82.84;98350.50;1639199;87;28102;-90
2021/06/23 07:17:09;;;;;;;27.90;17.87;;;;;;;20.14;82.89;98353.85;1639451;87;28070;-90
2021/06/23 07:19:35;;;;;;;26.30;17.82;;;;;;;20.13;82.92;98354.35;1639553;87;28105;-90
2021/06/23 07:22:04;;;;;;;24.18;16.75;;;;;;;20.18;83.00;98357.36;1638715;87;28146;-90
2021/06/23 07:24:30;;;;;;;25.70;17.17;;;;;;;20.20;83.05;98352.69;1640185;85;28164;-90
2021/06/23 07:27:08;;;;;;;26.80;16.95;;;;;;;20.25;83.11;98346.86;1641636;85;28075;-89
2021/06/23 07:29:37;;;;;;;27.67;16.75;;;;;;;20.25;83.17;98345.03;1639360;86;28098;-90
2021/06/23 07:32:18;;;;;;;27.70;17.23;;;;;;;20.33;83.24;98347.71;1638614;85;28105;-90
2021/06/23 07:37:16;;;;;;;23.15;16.12;;;;;;;20.40;83.31;98350.52;1638788;87;28098;-89
2021/06/23 07:39:43;;;;;;;27.42;17.90;;;;;;;20.41;83.32;98350.33;1640359;87;28114;-89
2021/06/23 07:42:11;;;;;;;28.27;18.02;;;;;;;20.38;83.34;98342.71;1639774;87;28006;-89
2021/06/23 07:44:49;;;;;;;23.00;16.10;;;;;;;20.46;83.37;98344.00;1638801;87;28086;-89
2021/06/23 07:47:21;;;;;;;24.60;17.15;;;;;;;20.50;83.42;98344.50;1619717;87;28165;-89
2021/06/23 07:49:46;;;;;;;;;;;;;;;20.51;83.41;98345.34;1643060;86;28047;-89
2021/06/23 08:08:20;;;;;;;23.05;14.55;;;;;;;20.62;83.50;98358.25;1674181;84;28063;-89
2021/06/23 08:10:45;;;;;;;17.25;12.50;;;;;;;20.57;83.52;98349.44;1684861;83;28105;-89
2021/06/23 08:13:14;;;;;;;18.62;13.08;;;;;;;20.57;83.52;98355.25;1658188;84;28134;-89
2021/06/23 08:15:43;;;;;;;19.25;12.88;;;;;;;20.50;83.55;98359.12;1672145;84;28082;-89
2021/06/23 08:18:10;;;;;;;19.10;13.08;;;;;;;20.46;83.53;98350.64;1683998;83;28079;-89
2021/06/23 08:20:38;;;;;;;19.75;13.43;;;;;;;20.47;83.55;98356.79;1680647;83;28112;-88
2021/06/23 08:23:10;;;;;;;20.02;13.88;;;;;;;20.49;83.57;98361.95;1685713;83;28066;-89
2021/06/23 08:25:39;;;;;;;19.85;13.58;;;;;;;20.50;83.57;98367.59;1686549;83;28097;-89
2021/06/23 08:28:06;;;;;;;21.00;14.35;;;;;;;20.53;83.61;98364.58;1684087;83;28098;-89
2021/06/23 08:30:34;;;;;;;18.27;12.43;;;;;;;20.54;83.65;98371.56;1686609;83;28096;-88
2021/06/23 08:33:01;;;;;;;19.98;12.20;;;;;;;20.56;83.70;98370.91;1692650;83;28079;-88
2021/06/23 08:35:34;;;;;;;16.97;11.38;;;;;;;20.62;83.72;98376.87;1685254;83;28075;-88
2021/06/23 08:38:00;;;;;;;19.00;11.78;;;;;;;20.62;83.74;98373.68;1682961;83;28060;-89
2021/06/23 08:40:27;;;;;;;16.95;12.75;;;;;;;20.60;83.74;98382.35;1680091;83;28059;-88
2021/06/23 08:42:55;;;;;;;17.45;12.78;;;;;;;20.56;83.75;98376.22;1678658;83;28152;-89
2021/06/23 08:45:22;;;;;;;18.25;13.05;;;;;;;20.56;83.74;98379.71;1683335;83;28083;-88
2021/06/23 08:47:49;;;;;;;17.98;12.93;;;;;;;20.58;83.77;98380.35;1652204;84;28071;-87
2021/06/23 08:50:23;;;;;;;18.07;12.82;;;;;;;20.62;83.80;98386.98;1687028;84;28122;-89
2021/06/23 08:52:56;;;;;;;17.25;12.47;;;;;;;20.62;83.82;98386.98;1658663;83;28022;-89
2021/06/23 08:55:23;;;;;;;17.27;12.73;;;;;;;20.60;83.81;98385.50;1640672;85;28101;-88
2021/06/23 08:57:52;;;;;;;17.00;12.23;;;;;;;20.63;83.83;98385.98;1626656;86;28157;-89
2021/06/23 09:00:21;;;;;;;17.70;12.75;;;;;;;20.72;83.88;98389.46;1624231;86;28096;-89
2021/06/23 09:02:48;;;;;;;17.25;12.70;;;;;;;20.72;83.91;98385.47;1626603;86;28078;-89
2021/06/23 09:05:17;;;;;;;19.30;14.13;;;;;;;20.76;83.93;98392.09;1629990;86;28171;-89
2021/06/23 09:08:00;;;;;;;18.27;13.08;;;;;;;20.75;83.92;98387.77;1655735;85;28064;-89
2021/06/23 09:10:30;;;;;;;19.12;14.07;;;;;;;20.77;83.94;98390.60;1642236;87;28063;-89
2021/06/23 09:13:09;;;;;;;18.37;12.78;;;;;;;20.78;83.97;98392.23;1642973;87;28091;-89
2021/06/23 09:15:46;;;;;;;16.65;12.85;;;;;;;20.84;84.00;98384.89;1641875;86;28121;-89
2021/06/23 09:18:18;;;;;;;18.90;12.95;;;;;;;20.89;84.04;98390.52;1641836;87;28105;-89
2021/06/23 09:20:47;;;;;;;18.90;12.73;;;;;;;20.97;84.08;98386.18;1653063;85;28098;-89
2021/06/23 09:23:40;;;;;;;17.77;12.60;;;;;;;21.00;84.11;98384.52;1653512;85;28109;-89
2021/06/23 09:26:29;;;;;;;17.80;12.95;;;;;;;21.05;84.12;98389.64;1654907;83;28079;-89
2021/06/23 09:29:17;;;;;;;17.40;12.58;;;;;;;21.07;84.16;98390.28;1584919;89;28133;-89
2021/06/23 09:32:00;;;;;;;16.55;12.37;;;;;;;21.11;84.14;98388.92;1638276;85;28090;-90
2021/06/23 09:34:35;;;;;;;16.65;11.83;;;;;;;21.10;84.18;98389.95;1654213;85;28090;-90
2021/06/23 09:37:33;;;;;;;15.15;11.95;;;;;;;21.10;84.11;98393.11;1619767;85;28099;-90
2021/06/23 09:40:20;;;;;;;17.52;12.00;;;;;;;21.03;84.08;98393.47;1650861;85;28054;-89
2021/06/23 09:42:55;;;;;;;17.57;11.57;;;;;;;21.06;84.07;98393.94;1657620;85;28057;-89
2021/06/23 09:45:21;;;;;;;;;;;;;;;21.18;84.08;98403.23;1658685;85;28070;-89
2021/06/23 09:47:48;;;;;;;14.25;11.28;;;;;;;21.17;84.05;98402.06;1658126;85;26058;-89
2021/06/23 09:50:23;;;;;;;14.15;11.03;;;;;;;21.10;84.01;98400.59;1654017;85;28070;-90
2021/06/23 09:52:57;;;;;;;15.00;10.32;;;;;;;21.11;83.99;98398.23;1651469;85;28035;-90
2021/06/23 09:55:46;;;;;;;14.78;11.10;;;;;;;21.07;83.90;98396.94;1655896;85;28117;-90
2021/06/23 09:58:25;;;;;;;12.75;10.40;;;;;;;21.09;83.90;98399.43;1685752;84;28149;-90
2021/06/23 10:01:09;;;;;;;13.72;10.18;;;;;;;21.12;83.86;98397.73;1682484;83;28004;-89
2021/06/23 10:04:07;;;;;;;13.55;11.18;;;;;;;21.13;83.86;98396.73;1685711;83;28139;-90
2021/06/23 10:06:45;;;;;;;15.70;11.48;;;;;;;21.15;83.84;98400.93;1680981;84;28073;-90
2021/06/23 10:09:24;;;;;;;14.85;11.22;;;;;;;21.21;83.81;98402.89;1676193;84;28162;-89
2021/06/23 10:12:08;;;;;;;16.97;13.20;;;;;;;21.23;83.82;98405.36;1686220;82;28090;-90
2021/06/23 10:14:43;;;;;;;18.80;12.10;;;;;;;21.14;83.79;98400.59;1680577;84;28149;-89
2021/06/23 10:17:12;;;;;;;19.25;14.15;;;;;;;21.12;83.74;98401.73;1707379;82;28161;-89
2021/06/23 10:19:39;;;;;;;19.48;14.65;;;;;;;21.11;83.72;98403.55;1686430;83;28113;-89
2021/06/23 10:22:06;;;;;;;24.12;15.60;;;;;;;21.21;83.74;98407.39;1685456;83;28079;-90
2021/06/23 10:24:34;;;;;;;27.13;17.40;;;;;;;21.17;83.73;98401.56;1683274;83;28111;-89
2021/06/23 10:27:11;;;;;;;24.45;16.87;;;;;;;21.21;83.73;98406.89;1681312;83;28033;-89
2021/06/23 10:29:35;;;;;;;25.25;16.52;;;;;;;21.27;83.74;98409.35;1676250;82;28200;-89
2021/06/23 10:32:04;;;;;;;23.65;17.40;;;;;;;21.36;83.74;98403.47;1689759;83;28047;-89
2021/06/23 10:34:31;;;;;;;23.30;15.60;;;;;;;21.48;83.81;98409.55;1680073;83;28158;-89
2021/06/23 10:36:58;;;;;;;27.87;17.45;;;;;;;21.59;83.83;98414.97;1679913;84;28071;-89
2021/06/23 10:39:31;;;;;;;28.40;18.10;;;;;;;21.62;83.82;98402.12;1683683;84;28075;-89
2021/06/23 10:42:00;;;;;;;23.90;16.67;;;;;;;21.73;83.82;98404.86;1676811;84;28012;-88
2021/06/23 10:44:33;;;;;;;23.18;17.05;;;;;;;21.78;83.82;98406.48;1683399;84;28081;-89
2021/06/23 10:47:03;;;;;;;25.35;17.50;;;;;;;21.83;83.79;98405.45;1685869;83;28071;-89
2021/06/23 10:49:51;;;;;;;24.37;15.28;;;;;;;21.92;83.75;98407.06;1685768;83;28284;-89
2021/06/23 10:52:24;;;;;;;20.02;14.55;;;;;;;21.93;83.74;98399.89;1682921;84;28129;-89
2021/06/23 10:55:02;;;;;;;21.68;15.25;;;;;;;21.97;83.61;98408.71;1703434;82;28080;-89
2021/06/23 10:57:32;;;;;;;21.95;14.20;;;;;;;22.00;83.55;98401.67;1654068;84;28083;-89
2021/06/23 11:00:03;;;;;;;21.33;14.93;;;;;;;22.05;83.47;98405.12;1651998;85;28062;-89
2021/06/23 11:02:34;;;;;;;21.80;14.60;;;;;;;22.08;83.41;98407.45;1654457;85;28066;-89
2021/06/23 11:05:04;;;;;;;24.07;14.43;;;;;;;22.09;83.32;98393.92;1656468;85;28123;-89
2021/06/23 11:07:40;;;;;;;19.90;15.05;;;;;;;22.06;83.24;98390.30;1655503;85;28036;-89
2021/06/23 11:10:19;;;;;;;20.95;13.65;;;;;;;22.05;83.14;98395.30;1653776;85;28144;-89
2021/06/23 11:12:50;;;;;;;22.48;14.93;;;;;;;22.06;83.07;98393.46;1658695;85;28082;-89
2021/06/23 11:15:25;;;;;;;21.27;15.58;;;;;;;22.09;83.03;98389.92;1657631;85;28096;-89
2021/06/23 11:17:55;;;;;;;24.23;15.38;;;;;;;22.11;83.03;98389.75;1655469;85;28068;-89
2021/06/23 11:20:25;;;;;;;23.22;14.98;;;;;;;22.14;83.03;98389.41;1654622;85;28096;-89
2021/06/23 11:22:56;;;;;;;24.05;15.43;;;;;;;22.16;83.01;98387.36;1649720;84;28231;-89
2021/06/23 11:25:34;;;;;;;23.75;16.27;;;;;;;22.19;82.99;98387.52;1653927;85;28084;-89
2021/06/23 11:28:12;;;;;;;22.27;15.98;;;;;;;22.24;82.98;98383.80;1653990;85;28110;-89
2021/06/23 11:30:55;;;;;;;26.57;16.57;;;;;;;22.28;82.96;98386.42;1643381;85;28105;-89
2021/06/23 11:33:31;;;;;;;25.92;16.00;;;;;;;22.33;82.94;98393.36;1649260;85;28113;-89
2021/06/23 11:36:03;;;;;;;21.87;15.13;;;;;;;22.34;82.91;98390.52;1656180;85;28100;-89
2021/06/23 11:38:30;;;;;;;22.37;14.93;;;;;;;22.38;82.89;98397.14;1648049;85;28232;-89
2021/06/23 11:40:58;;;;;;;21.95;14.23;;;;;;;22.36;82.79;98402.34;1654290;85;28099;-89
2021/06/23 11:43:26;;;;;;;22.73;14.00;;;;;;;22.38;82.71;98406.98;1657776;85;28140;-89
2021/06/23 11:45:53;;;;;;;18.50;13.20;;;;;;;22.41;82.64;98415.97;1653485;85;28115;-89
2021/06/23 11:48:25;;;;;;;21.40;13.30;;;;;;;22.49;82.58;98409.20;1655769;85;28028;-89
2021/06/23 11:50:49;;;;;;;21.87;13.50;;;;;;;22.52;82.50;98411.01;1655897;85;28040;-89
2021/06/23 11:53:17;;;;;;;20.45;12.82;;;;;;;22.53;82.43;98413.97;1654627;85;28149;-89
2021/06/23 11:55:46;;;;;;;18.15;12.68;;;;;;;22.59;82.36;98412.91;1655977;85;28094;-89
2021/06/23 11:58:13;;;;;;;17.25;12.30;;;;;;;22.57;82.25;98413.63;1662022;84;28088;-89
2021/06/23 12:00:46;;;;;;;20.70;13.18;;;;;;;22.51;82.15;98407.19;1684563;82;28118;-89